Time;durP1;ratioP1;P1;durP2;ratioP2;P2;SDS_P1;SDS_P2;PMS_P1;PMS_P2;Temp;Humidity;BMP_temperature;BMP_pressure;BME280_temperature;BME280_humidity;BME280_pressure;Samples;Min_cycle;Max_cycle;Signal;HPM_P1;HPM_P2
2021/04/09 05:30:15;;;;;;;26.23;12.30;;;;;;;-0.08;80.74;100913.77;1778396;76;26947;31
2021/04/09 05:32:42;;;;;;;25.95;12.13;;;;;;;-0.01;80.46;100913.97;1745771;80;25708;-57
2021/04/09 05:35:12;;;;;;;25.48;12.20;;;;;;;0.08;80.44;100905.16;1732340;80;26144;-56
2021/04/09 05:37:38;;;;;;;21.00;11.77;;;;;;;0.18;80.26;100908.63;1721275;82;25545;-57
2021/04/09 05:40:06;;;;;;;22.52;11.70;;;;;;;0.28;80.16;100909.42;1743651;80;25594;-57
2021/04/09 05:42:33;;;;;;;28.47;11.55;;;;;;;0.37;80.06;100910.72;1739796;82;25777;-58
2021/04/09 05:45:00;;;;;;;25.27;11.83;;;;;;;0.47;80.06;100908.33;1743542;82;25600;-56
2021/04/09 05:47:27;;;;;;;26.73;11.80;;;;;;;0.60;79.90;100910.53;1744056;82;25270;-58
2021/04/09 05:49:54;;;;;;;21.45;10.68;;;;;;;0.72;79.77;100915.36;1744178;82;25520;-58
2021/04/09 05:52:21;;;;;;;25.72;12.68;;;;;;;0.84;79.25;100914.86;1744334;82;25459;-57
2021/04/09 05:54:48;;;;;;;21.80;12.23;;;;;;;0.96;79.00;100916.74;1744373;82;25700;-58
2021/04/09 05:57:14;;;;;;;23.02;11.33;;;;;;;1.09;78.86;100919.16;1744127;82;25443;-58
2021/04/09 05:59:41;;;;;;;25.52;10.40;;;;;;;1.24;78.99;100914.22;1744261;82;25436;-57
2021/04/09 06:02:08;;;;;;;22.52;11.93;;;;;;;1.39;78.03;100916.41;1744189;82;25589;-52
2021/04/09 06:04:35;;;;;;;22.02;11.45;;;;;;;1.55;77.87;100916.73;1744326;82;25277;-57
2021/04/09 06:07:02;;;;;;;23.95;10.85;;;;;;;1.70;77.77;100925.07;1744290;82;25767;-54
2021/04/09 06:09:28;;;;;;;21.25;11.25;;;;;;;1.84;77.20;100915.78;1729676;80;25729;-57
2021/04/09 06:11:56;;;;;;;23.47;11.48;;;;;;;2.00;76.65;100927.57;1746841;80;25354;-57
2021/04/09 06:14:22;;;;;;;18.10;10.23;;;;;;;2.15;75.67;100915.06;1759294;81;25325;-56
2021/04/09 06:16:48;;;;;;;27.37;12.35;;;;;;;2.32;75.71;100908.44;1760291;81;25486;-57
2021/04/09 06:19:15;;;;;;;19.77;9.90;;;;;;;2.50;75.68;100900.73;1760212;81;25708;-59
2021/04/09 06:21:42;;;;;;;21.15;11.38;;;;;;;2.70;74.84;100906.97;1760219;81;25285;-57
2021/04/09 06:24:10;;;;;;;22.42;11.05;;;;;;;2.90;74.76;100912.38;1760211;81;25459;-56
2021/04/09 06:26:37;;;;;;;24.85;10.93;;;;;;;3.07;73.87;100898.48;1760336;81;25246;-56
2021/04/09 06:29:04;;;;;;;25.40;11.68;;;;;;;3.24;72.80;100896.34;1751775;80;25476;-57
2021/04/09 06:31:30;;;;;;;22.70;11.57;;;;;;;3.40;72.94;100896.02;1742010;79;25717;-57
2021/04/09 06:33:56;;;;;;;19.48;9.95;;;;;;;3.63;72.37;100896.34;1757796;81;25662;-57
2021/04/09 06:36:23;;;;;;;17.17;10.82;;;;;;;3.87;71.84;100895.58;1759280;81;25322;-55
2021/04/09 06:38:50;;;;;;;15.40;9.10;;;;;;;4.14;72.17;100901.48;1759192;80;25522;-56
2021/04/09 06:41:17;;;;;;;19.82;10.65;;;;;;;4.34;69.80;100894.20;1759295;81;25502;-57
2021/04/09 06:43:43;;;;;;;18.05;10.75;;;;;;;4.50;69.05;100897.33;1759249;81;25765;-57
2021/04/09 06:46:11;;;;;;;20.55;9.75;;;;;;;4.61;68.85;100888.30;1746014;80;25511;-57
2021/04/09 06:48:37;;;;;;;16.97;9.63;;;;;;;4.91;70.25;100895.55;1736053;81;25331;-57
2021/04/09 06:51:04;;;;;;;20.65;9.98;;;;;;;5.13;68.67;100886.85;1722541;81;25668;-58
2021/04/09 06:53:32;;;;;;;21.48;10.20;;;;;;;5.34;67.23;100901.20;1729358;81;25354;-58
2021/04/09 06:56:01;;;;;;;21.10;9.78;;;;;;;5.57;67.94;100895.98;1710509;82;25789;-58
2021/04/09 06:58:28;;;;;;;19.00;9.95;;;;;;;5.79;66.01;100890.45;1689149;84;34549;-54
2021/04/09 07:00:59;;;;;;;17.60;9.68;;;;;;;5.89;64.41;100889.69;1689113;84;25392;-58
2021/04/09 07:03:25;;;;;;;16.45;9.38;;;;;;;6.02;64.88;100897.80;1736485;81;25278;-58
2021/04/09 07:05:52;;;;;;;19.60;10.28;;;;;;;6.18;64.63;100890.62;1743683;81;25258;-59
2021/04/09 07:08:19;;;;;;;17.62;9.23;;;;;;;6.29;62.59;100889.55;1743863;82;25849;-59
2021/04/09 07:10:46;;;;;;;15.85;9.58;;;;;;;6.44;63.00;100894.16;1743896;81;25435;-58
2021/04/09 07:13:14;;;;;;;14.40;9.50;;;;;;;6.64;62.43;100889.35;1743894;82;25313;-55
2021/04/09 07:15:44;;;;;;;16.30;10.28;;;;;;;6.85;62.96;100893.39;1743916;82;25508;-58
2021/04/09 07:18:17;;;;;;;20.50;11.30;;;;;;;7.01;60.97;100889.59;1740517;81;25394;-56
2021/04/09 07:20:45;;;;;;;19.40;9.30;;;;;;;7.21;60.57;100875.88;1689732;83;26152;-58
2021/04/09 07:23:13;;;;;;;16.85;8.35;;;;;;;7.32;60.11;100875.30;1746129;81;25589;-61
2021/04/09 07:25:44;;;;;;;13.53;8.43;;;;;;;7.55;61.37;100873.36;1736885;82;25342;-61
2021/04/09 07:28:24;;;;;;;13.88;8.45;;;;;;;7.82;61.65;100875.69;1728408;81;25539;-61
2021/04/09 07:30:54;;;;;;;16.70;9.78;;;;;;;7.97;58.31;100888.84;1731718;81;25442;-59
2021/04/09 07:33:26;;;;;;;19.92;9.58;;;;;;;7.79;56.70;100873.53;1733822;81;25808;-59
2021/04/09 07:36:00;;;;;;;18.48;9.78;;;;;;;7.79;56.84;100870.84;1733116;82;25527;-60
2021/04/09 07:38:31;;;;;;;16.00;9.88;;;;;;;7.78;55.95;100883.23;1737834;82;25523;-60
2021/04/09 07:41:10;;;;;;;15.15;9.08;;;;;;;7.63;56.13;100871.45;1737757;82;26110;-62
2021/04/09 07:43:39;;;;;;;19.37;9.80;;;;;;;7.55;55.33;100892.20;1737871;82;25589;-61
2021/04/09 07:46:22;;;;;;;14.13;8.50;;;;;;;7.46;55.92;100863.70;1738039;82;25771;-62
2021/04/09 07:49:03;;;;;;;14.65;8.08;;;;;;;7.49;56.48;100877.13;1746261;82;25578;-61
2021/04/09 07:51:30;;;;;;;14.68;8.15;;;;;;;7.46;54.74;100850.23;1748967;82;25516;-60
2021/04/09 07:54:09;;;;;;;14.47;8.25;;;;;;;7.59;55.09;100853.42;1749257;81;25325;-59
2021/04/09 07:56:45;;;;;;;17.12;8.83;;;;;;;7.69;53.48;100857.97;1718009;82;25599;-61
2021/04/09 07:59:12;;;;;;;12.90;8.40;;;;;;;7.73;53.06;100848.25;1749380;81;25962;-59
2021/04/09 08:01:47;;;;;;;14.15;9.08;;;;;;;7.73;52.17;100860.37;1745374;81;25405;-62
2021/04/09 08:04:14;;;;;;;14.68;8.88;;;;;;;7.70;51.66;100840.75;1720664;83;25470;-60
2021/04/09 08:06:41;;;;;;;11.80;7.83;;;;;;;7.70;50.55;100839.40;1719952;83;25537;-62
2021/04/09 08:09:08;;;;;;;14.20;7.30;;;;;;;7.71;52.82;100833.71;1720551;83;25491;-61
2021/04/09 08:11:38;;;;;;;14.98;7.72;;;;;;;7.96;53.69;100834.68;1720871;83;26697;-60
2021/04/09 08:14:23;;;;;;;12.03;7.85;;;;;;;8.17;52.50;100824.58;1720774;83;25331;-52
2021/04/09 08:16:51;;;;;;;12.80;7.28;;;;;;;8.25;49.40;100834.77;1722991;81;25603;-51
2021/04/09 08:19:25;;;;;;;11.22;6.80;;;;;;;8.23;49.21;100852.56;1725686;81;25606;-51
2021/04/09 08:21:57;;;;;;;11.78;7.58;;;;;;;8.26;49.60;100823.44;1738831;81;25539;-49
2021/04/09 08:24:32;;;;;;;11.25;6.87;;;;;;;8.32;48.47;100825.02;1742665;81;26240;-53
2021/04/09 08:26:59;;;;;;;11.05;7.17;;;;;;;8.29;48.18;100812.10;1737777;81;25693;-53
2021/04/09 08:29:28;;;;;;;14.10;7.33;;;;;;;8.31;47.81;100822.05;1738655;82;25577;-49
2021/04/09 08:31:55;;;;;;;;;;;;;;;8.41;48.95;100827.37;1718688;81;25583;-53
2021/04/09 08:34:22;;;;;;;14.25;7.33;;;;;;;8.45;47.38;100819.03;1716171;83;25657;-53
2021/04/09 08:36:53;;;;;;;14.83;7.17;;;;;;;8.57;49.69;100799.80;1716101;83;25782;-51
2021/04/09 08:39:19;;;;;;;12.45;6.58;;;;;;;8.85;48.80;100812.22;1715799;83;25569;-49
2021/04/09 08:41:50;;;;;;;9.90;6.92;;;;;;;8.96;46.28;100809.13;1716126;83;25658;-47
2021/04/09 08:44:17;;;;;;;11.48;6.75;;;;;;;8.89;44.43;100786.30;1716676;82;25522;-49
2021/04/09 08:46:45;;;;;;;12.50;7.20;;;;;;;8.98;46.73;100794.02;1736831;82;25489;-49
2021/04/09 08:49:16;;;;;;;11.50;6.47;;;;;;;9.05;45.24;100793.67;1740266;80;25971;-53
2021/04/09 08:51:45;;;;;;;12.93;6.87;;;;;;;9.07;46.68;100799.58;1735559;82;25589;-51
2021/04/09 08:54:28;;;;;;;12.70;7.33;;;;;;;9.07;46.11;100792.28;1734840;82;25502;-51
2021/04/09 08:56:53;;;;;;;11.88;6.97;;;;;;;9.12;46.92;100781.98;1712505;82;25343;-53
2021/04/09 08:59:44;;;;;;;13.20;7.25;;;;;;;9.16;45.97;100781.69;1735287;82;25507;-51
2021/04/09 09:02:25;;;;;;;12.90;7.12;;;;;;;9.24;46.36;100770.23;1707664;82;26727;-48
2021/04/09 09:05:05;;;;;;;13.22;6.10;;;;;;;9.61;44.86;100776.02;1700351;82;25638;-63
2021/04/09 09:07:54;;;;;;;11.35;6.62;;;;;;;10.28;47.97;100776.66;1847777;76;34493;-66
2021/04/09 09:10:32;;;;;;;8.85;6.03;;;;;;;10.47;45.04;100763.65;1814071;78;25427;-64
2021/04/09 09:13:12;;;;;;;13.05;7.55;;;;;;;10.46;42.97;100762.86;1802961;78;26592;-61
2021/04/09 09:15:47;;;;;;;;;;;;;;;10.23;41.64;100756.46;1796469;78;25757;-61
2021/04/09 09:18:28;;;;;;;11.33;6.67;;;;;;;10.05;40.43;100759.98;1787480;80;25268;-59
2021/04/09 09:21:25;;;;;;;10.28;6.42;;;;;;;10.02;41.72;100757.31;1787309;80;25317;-68
2021/04/09 09:24:17;;;;;;;10.98;6.42;;;;;;;9.93;43.33;100781.23;1787052;80;25244;-66
2021/04/09 09:26:48;;;;;;;10.82;5.70;;;;;;;9.64;42.65;100749.78;1787372;80;25700;-68
2021/04/09 09:29:28;;;;;;;8.98;5.97;;;;;;;9.53;44.25;100728.84;1787353;80;25434;-68
2021/04/09 09:32:06;;;;;;;6.72;5.10;;;;;;;9.67;42.42;100741.06;1787127;80;26239;-65
2021/04/09 09:34:41;;;;;;;9.75;5.47;;;;;;;9.76;42.86;100752.05;1789681;77;25280;-57
2021/04/09 09:37:14;;;;;;;8.70;5.78;;;;;;;9.89;40.59;100753.46;1817573;79;25241;-57
2021/04/09 09:39:55;;;;;;;6.92;5.08;;;;;;;9.71;39.42;100752.35;1817398;78;25685;-65
2021/04/09 09:42:30;;;;;;;12.25;5.80;;;;;;;9.69;40.31;100717.29;1817524;79;25847;-65
2021/04/09 09:45:06;;;;;;;10.25;6.25;;;;;;;9.67;42.13;100726.20;1817509;79;25461;-64
2021/04/09 09:47:41;;;;;;;9.50;5.90;;;;;;;9.92;41.32;100727.73;1816729;79;25267;-64
2021/04/09 09:50:25;;;;;;;9.25;5.40;;;;;;;10.17;42.33;100706.27;1817701;79;25493;-64
2021/04/09 09:53:02;;;;;;;8.43;5.85;;;;;;;10.74;40.06;100752.08;1812623;77;25675;-65
2021/04/09 09:55:39;;;;;;;9.45;6.55;;;;;;;10.92;40.04;100707.67;1806384;79;25474;-64
2021/04/09 09:58:27;;;;;;;10.68;6.03;;;;;;;10.83;38.80;100710.28;1814589;77;25535;-64
2021/04/09 10:00:59;;;;;;;10.03;6.10;;;;;;;11.05;39.93;100710.10;1808911;77;25255;-64
2021/04/09 10:03:35;;;;;;;11.55;6.67;;;;;;;11.44;36.23;100707.40;1807657;78;25508;-64
2021/04/09 10:06:13;;;;;;;11.05;6.75;;;;;;;11.67;37.11;100708.25;1800392;78;26607;-67
2021/04/09 10:08:42;;;;;;;11.95;6.05;;;;;;;11.90;36.21;100713.95;1789316;77;25569;-65
2021/04/09 10:11:17;;;;;;;8.43;6.00;;;;;;;12.09;35.08;100700.23;1805048;78;25498;-65
2021/04/09 10:13:46;;;;;;;10.23;6.33;;;;;;;11.98;34.04;100699.43;1809864;77;25589;-64
2021/04/09 10:16:22;;;;;;;10.82;5.97;;;;;;;11.58;34.82;100709.54;1788093;78;25297;-62
2021/04/09 10:18:54;;;;;;;10.60;6.33;;;;;;;11.21;35.78;100699.22;1786772;80;25691;-62
2021/04/09 10:21:28;;;;;;;8.25;5.85;;;;;;;11.55;34.93;100697.95;1785597;80;25495;-60
2021/04/09 10:24:14;;;;;;;9.68;5.92;;;;;;;11.80;34.33;100700.64;1786279;80;25614;-61
2021/04/09 10:26:45;;;;;;;10.80;5.60;;;;;;;11.93;35.97;100679.45;1786648;80;25412;-62
2021/04/09 10:29:27;;;;;;;9.75;5.80;;;;;;;12.27;33.42;100682.70;1802351;77;25468;-61
2021/04/09 10:31:57;;;;;;;10.32;6.33;;;;;;;12.75;33.80;100650.74;1786649;80;25759;-62
2021/04/09 10:34:26;;;;;;;9.25;5.70;;;;;;;13.30;33.91;100673.06;1786523;80;25443;-61
2021/04/09 10:36:54;;;;;;;9.30;5.22;;;;;;;13.45;32.72;100658.50;1786560;80;25428;-61
2021/04/09 10:39:23;;;;;;;8.83;5.58;;;;;;;13.51;31.34;100657.77;1786642;80;25510;-62
2021/04/09 10:41:53;;;;;;;12.50;6.40;;;;;;;13.42;34.08;100649.63;1786878;80;25457;-62
2021/04/09 10:44:23;;;;;;;;;;;;;;;13.29;32.27;100655.19;1788998;80;25681;-61
2021/04/09 10:46:58;;;;;;;9.53;6.10;;;;;;;13.24;33.40;100639.27;1786492;80;25413;-63
2021/04/09 10:49:29;;;;;;;8.40;5.17;;;;;;;13.69;32.40;100647.71;1786642;80;25324;-62
2021/04/09 10:52:00;;;;;;;7.20;5.10;;;;;;;14.03;33.27;100635.19;1791879;77;25269;-60
2021/04/09 10:54:31;;;;;;;9.05;5.75;;;;;;;14.40;31.50;100632.80;1787549;79;25648;-61
2021/04/09 10:57:06;;;;;;;9.18;5.50;;;;;;;14.59;31.79;100625.62;1817093;77;26520;-61
2021/04/09 10:59:45;;;;;;;9.98;5.78;;;;;;;14.71;29.95;100640.72;1817476;77;25777;-61
2021/04/09 11:02:24;;;;;;;9.83;5.70;;;;;;;14.38;29.77;100639.14;1850416;77;25437;-60
2021/04/09 11:04:55;;;;;;;9.18;5.70;;;;;;;14.14;29.96;100622.03;1850380;77;25642;-61
2021/04/09 11:07:40;;;;;;;10.15;5.17;;;;;;;13.83;30.97;100619.77;1839190;77;25527;-60
2021/04/09 11:10:09;;;;;;;7.08;5.08;;;;;;;14.08;30.35;100615.97;1816696;77;25689;-62
2021/04/09 11:12:39;;;;;;;8.50;5.63;;;;;;;14.33;31.04;100588.98;1805584;78;25665;-61
2021/04/09 11:15:10;;;;;;;7.42;4.70;;;;;;;14.14;30.80;100609.22;1801746;77;25523;-61
2021/04/09 11:17:41;;;;;;;10.05;5.17;;;;;;;14.22;29.93;100605.42;1801677;78;26218;-61
2021/04/09 11:21:03;;;;;;;6.58;4.55;;;;;;;14.42;30.79;100593.02;1816866;77;25413;-61
2021/04/09 11:23:41;;;;;;;7.50;4.40;;;;;;;14.78;30.74;100602.63;1794742;78;25965;-60
2021/04/09 11:26:20;;;;;;;10.13;5.08;;;;;;;14.78;29.23;100599.36;1791360;80;25628;-62
2021/04/09 11:28:52;;;;;;;6.83;4.53;;;;;;;14.63;31.46;100593.91;1804215;78;25565;-60
2021/04/09 11:31:29;;;;;;;8.60;4.65;;;;;;;14.74;29.83;100618.28;1792322;78;25589;-61
2021/04/09 11:34:07;;;;;;;7.78;5.10;;;;;;;14.46;28.00;100606.23;1806624;78;25282;-61
2021/04/09 11:36:49;;;;;;;8.88;5.42;;;;;;;14.27;29.67;100590.28;1805159;77;25946;-61
2021/04/09 11:39:22;;;;;;;10.13;6.28;;;;;;;14.36;29.36;100597.86;1800919;77;25447;-61
2021/04/09 11:44:41;;;;;;;8.33;5.25;;;;;;;14.18;28.81;100589.77;1872118;76;25293;-62
2021/04/09 11:47:28;;;;;;;9.30;6.03;;;;;;;14.23;29.33;100567.02;1843431;77;25437;-61
2021/04/09 11:50:15;;;;;;;11.38;5.70;;;;;;;14.09;28.34;100588.99;1837183;77;25814;-62
2021/04/09 11:53:04;;;;;;;9.48;5.70;;;;;;;14.15;30.25;100565.94;1845606;77;25594;-61
2021/04/09 11:55:35;;;;;;;9.65;5.55;;;;;;;14.40;29.87;100552.53;1851453;77;25265;-62
2021/04/09 11:58:03;;;;;;;11.38;5.80;;;;;;;14.39;28.81;100552.31;1844043;77;25340;-61
2021/04/09 12:00:32;;;;;;;11.28;6.20;;;;;;;14.18;28.80;100546.79;1784152;80;25445;-62
2021/04/09 12:03:04;;;;;;;12.28;5.72;;;;;;;13.83;28.35;100563.25;1783895;80;26620;-60
2021/04/09 12:05:33;;;;;;;8.63;5.83;;;;;;;13.66;30.22;100549.70;1762667;80;25455;-62
2021/04/09 12:08:02;;;;;;;9.70;6.40;;;;;;;13.75;30.79;100536.31;1778973;80;31774;-62
2021/04/09 12:10:33;;;;;;;7.35;6.17;;;;;;;13.73;29.30;100544.00;1755067;80;25314;-61
2021/04/09 12:12:59;;;;;;;12.37;5.58;;;;;;;13.67;29.86;100539.05;1778203;80;25567;-61
2021/04/09 12:15:29;;;;;;;7.05;4.95;;;;;;;13.87;31.75;100526.12;1786734;80;25711;-61
2021/04/09 12:17:56;;;;;;;7.65;5.28;;;;;;;14.11;30.40;100516.02;1783307;80;25542;-63
2021/04/09 12:20:26;;;;;;;7.95;5.17;;;;;;;14.32;32.26;100513.91;1783296;80;25385;-69
2021/04/09 12:22:55;;;;;;;9.70;6.35;;;;;;;14.39;33.06;100517.72;1766079;81;25459;-71
2021/04/09 12:25:23;;;;;;;8.83;5.97;;;;;;;14.08;31.60;100512.61;1766154;80;25355;-69
2021/04/09 12:27:49;;;;;;;9.15;5.95;;;;;;;13.69;31.30;100519.13;1766300;78;25682;-69
2021/04/09 12:30:19;;;;;;;11.53;6.30;;;;;;;13.31;31.27;100505.67;1802232;77;25563;-70
2021/04/09 12:32:46;;;;;;;;;;;;;;;12.96;31.63;100494.86;1810601;77;25634;-70
2021/04/09 12:35:13;;;;;;;10.82;5.97;;;;;;;12.66;32.12;100493.88;1803608;77;25620;-70
2021/04/09 12:37:39;;;;;;;10.38;6.60;;;;;;;12.58;32.19;100522.63;1802227;79;25664;-69
2021/04/09 12:40:08;;;;;;;9.78;6.15;;;;;;;12.43;33.19;100494.02;1754877;81;25750;-68
2021/04/09 12:42:35;;;;;;;9.45;6.03;;;;;;;12.45;33.48;100492.34;1762944;80;25660;-66
2021/04/09 12:45:05;;;;;;;7.72;5.85;;;;;;;12.36;32.74;100475.24;1781763;80;25961;-67
2021/04/09 12:47:31;;;;;;;11.28;6.58;;;;;;;12.26;34.04;100474.97;1785661;80;25615;-69
2021/04/09 12:49:58;;;;;;;10.23;6.62;;;;;;;12.24;33.73;100484.80;1781558;80;25702;-68
2021/04/09 12:52:25;;;;;;;8.23;6.03;;;;;;;12.12;33.11;100481.34;1773992;80;25769;-68
2021/04/09 12:58:56;;;;;;;10.70;7.15;;;;;;;11.82;33.77;100476.74;1803733;78;25583;-66
2021/04/09 13:04:39;;;;;;;13.10;6.78;;;;;;;11.85;34.37;100455.77;1806889;77;25406;-66
2021/04/09 13:07:06;;;;;;;13.13;6.40;;;;;;;11.85;34.40;100465.25;1775887;78;25779;-65
2021/04/09 13:09:33;;;;;;;9.43;6.72;;;;;;;11.91;33.67;100484.37;1773387;79;25603;-65
2021/04/09 13:12:07;;;;;;;10.23;7.17;;;;;;;11.90;34.09;100470.00;1784119;78;25672;-64
2021/04/09 13:14:54;;;;;;;10.30;6.58;;;;;;;12.00;34.91;100441.81;1804535;79;25579;-65
2021/04/09 13:17:23;;;;;;;9.83;6.40;;;;;;;12.19;34.16;100447.52;1824636;78;25670;-64
2021/04/09 13:19:49;;;;;;;10.50;6.90;;;;;;;12.24;33.09;100446.02;1805546;79;25909;-64
2021/04/09 13:22:31;;;;;;;11.22;6.50;;;;;;;12.18;33.02;100434.53;1824562;78;25433;-64
2021/04/09 13:24:59;;;;;;;12.80;6.95;;;;;;;12.23;33.20;100448.51;1805761;79;25314;-64
2021/04/09 13:27:26;;;;;;;11.33;6.85;;;;;;;12.26;33.89;100450.56;1824267;78;25267;-64
2021/04/09 13:29:52;;;;;;;8.88;6.00;;;;;;;12.27;32.58;100450.25;1802727;79;25477;-64
2021/04/09 13:32:25;;;;;;;9.58;5.83;;;;;;;12.20;33.86;100423.37;1672196;83;25976;-64
2021/04/09 13:34:51;;;;;;;12.80;7.05;;;;;;;12.33;33.24;100439.50;1699893;83;25287;-64
2021/04/09 13:37:18;;;;;;;11.28;7.60;;;;;;;12.29;32.97;100434.48;1724378;83;25540;-62
2021/04/09 13:39:44;;;;;;;12.25;7.20;;;;;;;12.27;33.40;100431.84;1724421;83;25386;-63
2021/04/09 13:42:23;;;;;;;11.78;6.65;;;;;;;12.24;33.03;100429.22;1724193;83;25817;-63
2021/04/09 13:45:25;;;;;;;10.48;6.78;;;;;;;12.23;33.75;100413.25;1749325;80;25761;-63
2021/04/09 13:47:58;;;;;;;12.63;7.05;;;;;;;12.31;32.73;100422.75;1743618;82;25645;-62
2021/04/09 13:50:53;;;;;;;10.23;6.40;;;;;;;12.22;32.84;100428.70;1811033;76;25280;-63
2021/04/09 13:53:37;;;;;;;13.03;7.03;;;;;;;12.23;33.05;100426.25;1751804;79;25341;-64
2021/04/09 13:56:09;;;;;;;9.43;6.53;;;;;;;12.32;33.56;100421.62;1748461;80;25251;-64
2021/04/09 13:58:37;;;;;;;15.58;7.22;;;;;;;12.42;33.05;100427.88;1773344;80;25685;-63
2021/04/09 14:01:04;;;;;;;12.73;6.87;;;;;;;12.41;32.79;100426.27;1768413;81;25459;-63
2021/04/09 14:08:20;;;;;;;10.40;6.70;;;;;;;12.42;33.13;100411.03;1777573;79;34839;-65
2021/04/09 14:10:46;;;;;;;11.10;6.62;;;;;;;12.40;33.22;100404.34;1762874;80;25509;-66
2021/04/09 14:13:13;;;;;;;12.68;7.00;;;;;;;12.41;33.13;100414.88;1761518;80;25708;-65
2021/04/09 14:15:40;;;;;;;11.78;6.53;;;;;;;12.39;33.17;100406.23;1760017;80;25507;-63
2021/04/09 14:18:07;;;;;;;13.88;6.55;;;;;;;12.29;32.83;100403.30;1722125;81;25436;-63
2021/04/09 14:20:37;;;;;;;11.53;6.58;;;;;;;12.27;33.37;100391.94;1760397;80;25839;-64
2021/04/09 14:23:17;;;;;;;13.13;7.17;;;;;;;12.34;33.07;100405.03;1746792;81;25254;-65
2021/04/09 14:25:50;;;;;;;13.53;6.42;;;;;;;12.27;33.02;100395.22;1744014;80;25660;-65
2021/04/09 14:28:18;;;;;;;10.38;6.70;;;;;;;12.24;32.48;100401.27;1759422;80;25641;-64
2021/04/09 14:30:46;;;;;;;9.73;6.40;;;;;;;12.13;32.30;100388.59;1755046;80;25667;-64
2021/04/09 14:33:19;;;;;;;12.37;6.47;;;;;;;12.04;32.84;100384.52;1719550;82;25282;-64
2021/04/09 14:36:09;;;;;;;10.28;6.33;;;;;;;12.01;32.59;100391.91;1719217;81;25315;-64
2021/04/09 14:38:36;;;;;;;10.25;6.20;;;;;;;11.96;32.58;100373.88;1743567;80;26548;-65
2021/04/09 14:41:04;;;;;;;7.25;5.53;;;;;;;11.91;32.61;100384.08;1725775;81;25302;-64
2021/04/09 14:46:46;;;;;;;10.72;6.40;;;;;;;11.80;32.68;100375.42;1751395;80;25240;-65
2021/04/09 14:49:25;;;;;;;9.90;6.25;;;;;;;11.70;32.60;100375.72;1747626;80;25725;-63
2021/04/09 14:52:01;;;;;;;8.30;6.25;;;;;;;11.66;32.54;100380.94;1743311;80;26685;-64
2021/04/09 14:54:31;;;;;;;11.03;6.65;;;;;;;11.65;32.95;100362.31;1735867;81;25424;-65
2021/04/09 14:56:59;;;;;;;9.55;6.33;;;;;;;11.62;33.45;100354.24;1721993;82;25320;-65
2021/04/09 14:59:27;;;;;;;11.05;6.47;;;;;;;11.61;33.61;100366.75;1715504;82;25668;-64
2021/04/09 15:01:55;;;;;;;10.23;6.53;;;;;;;11.56;32.44;100372.56;1718536;80;25607;-63
2021/04/09 15:04:22;;;;;;;10.45;6.28;;;;;;;11.49;33.37;100358.68;1732334;80;25621;-63
2021/04/09 15:06:50;;;;;;;11.12;6.42;;;;;;;11.36;33.24;100357.66;1726093;80;25450;-64
2021/04/09 15:09:17;;;;;;;13.03;6.90;;;;;;;11.27;33.91;100356.02;1733405;80;25307;-64
2021/04/09 15:11:44;;;;;;;14.93;5.95;;;;;;;11.19;33.11;100353.53;1739069;80;25345;-64
2021/04/09 15:14:12;;;;;;;9.40;6.17;;;;;;;11.15;33.52;100341.17;1738154;80;25553;-63
2021/04/09 15:16:41;;;;;;;8.13;5.45;;;;;;;11.09;34.21;100340.27;1724892;81;25626;-63
2021/04/09 15:19:09;;;;;;;7.80;4.75;;;;;;;11.05;34.51;100341.44;1744166;80;25551;-63
2021/04/09 15:21:39;;;;;;;11.57;6.22;;;;;;;11.03;35.08;100344.45;1743612;81;25509;-64
2021/04/09 15:24:07;;;;;;;11.70;6.55;;;;;;;11.04;34.92;100342.54;1736454;80;25416;-64
2021/04/09 15:26:35;;;;;;;11.25;6.67;;;;;;;11.03;34.71;100355.81;1729982;80;25659;-64
2021/04/09 15:29:06;;;;;;;8.88;5.62;;;;;;;10.99;34.69;100339.40;1743675;80;25664;-63
2021/04/09 15:31:34;;;;;;;10.00;6.10;;;;;;;10.95;34.65;100343.84;1731017;80;25263;-63
2021/04/09 15:34:02;;;;;;;11.73;6.10;;;;;;;10.92;34.73;100347.73;1727793;82;25679;-63
2021/04/09 15:36:32;;;;;;;9.98;5.97;;;;;;;10.88;35.24;100344.84;1745736;80;25623;-62
2021/04/09 15:39:00;;;;;;;;;;;;;;;10.83;35.20;100340.36;1731109;81;25558;-63
2021/04/09 15:41:28;;;;;;;8.68;5.92;;;;;;;10.81;35.34;100341.23;1749393;80;25662;-62
2021/04/09 15:43:57;;;;;;;14.25;5.70;;;;;;;10.80;35.02;100338.83;1727121;81;25629;-64
2021/04/09 15:46:25;;;;;;;10.08;5.40;;;;;;;10.76;35.65;100341.36;1740655;81;25423;-63
2021/04/09 15:48:52;;;;;;;7.37;5.22;;;;;;;10.74;35.81;100343.55;1722849;81;25998;-63
2021/04/09 15:51:20;;;;;;;9.13;5.53;;;;;;;10.75;35.98;100341.09;1726621;81;25263;-63
2021/04/09 15:53:48;;;;;;;12.75;6.30;;;;;;;10.76;36.17;100345.41;1713312;82;25704;-63
2021/04/09 15:56:15;;;;;;;10.82;6.08;;;;;;;10.77;35.76;100340.23;1731821;80;25651;-63
2021/04/09 15:58:43;;;;;;;10.15;5.85;;;;;;;10.78;35.02;100340.48;1726617;80;25583;-62
2021/04/09 16:01:11;;;;;;;9.58;5.70;;;;;;;10.78;35.75;100341.84;1729483;80;25571;-62
2021/04/09 16:03:38;;;;;;;12.35;5.90;;;;;;;10.78;36.06;100344.55;1740714;80;25245;-62
2021/04/09 16:06:06;;;;;;;10.53;5.55;;;;;;;10.78;35.23;100336.98;1732531;80;26575;-63
2021/04/09 16:08:34;;;;;;;9.58;5.83;;;;;;;10.78;36.06;100332.93;1755669;80;25614;-62
2021/04/09 16:11:01;;;;;;;11.03;5.33;;;;;;;10.78;36.02;100331.58;1731213;80;25755;-62
2021/04/09 16:13:29;;;;;;;8.18;5.50;;;;;;;10.76;36.21;100331.06;1747030;80;25530;-63
2021/04/09 16:15:57;;;;;;;13.25;6.50;;;;;;;10.74;35.82;100343.55;1741719;80;25622;-65
2021/04/09 16:18:24;;;;;;;10.78;5.42;;;;;;;10.70;36.02;100331.75;1737565;80;25619;-64
2021/04/09 16:20:52;;;;;;;9.78;5.33;;;;;;;10.68;36.64;100333.19;1716369;82;25243;-62
2021/04/09 16:23:19;;;;;;;12.20;6.05;;;;;;;10.64;36.53;100339.20;1717465;82;25443;-63
2021/04/09 16:25:47;;;;;;;7.40;5.42;;;;;;;10.60;36.65;100321.19;1712085;82;25688;-64
2021/04/09 16:28:15;;;;;;;12.73;5.42;;;;;;;10.56;36.83;100335.88;1715899;82;25434;-63
2021/04/09 16:30:42;;;;;;;10.05;5.17;;;;;;;10.51;36.86;100330.59;1728075;82;25887;-63
2021/04/09 16:33:10;;;;;;;7.80;4.80;;;;;;;10.46;37.19;100326.09;1712838;82;25664;-63
2021/04/09 16:35:38;;;;;;;11.10;5.28;;;;;;;10.41;37.36;100326.22;1720580;81;25661;-63
2021/04/09 16:38:07;;;;;;;7.95;5.20;;;;;;;10.36;37.40;100318.80;1720451;82;25401;-63
2021/04/09 16:40:36;;;;;;;8.25;5.40;;;;;;;10.32;37.64;100324.02;1716265;82;25487;-63
2021/04/09 16:43:03;;;;;;;11.75;5.22;;;;;;;10.28;37.66;100322.98;1728212;82;25698;-64
2021/04/09 16:45:31;;;;;;;10.95;5.45;;;;;;;10.24;37.43;100324.71;1725877;82;25672;-63
2021/04/09 16:47:59;;;;;;;9.48;5.55;;;;;;;10.20;37.94;100321.82;1717815;81;25420;-63
2021/04/09 16:50:26;;;;;;;10.75;6.00;;;;;;;10.14;38.03;100320.33;1744567;80;25594;-63
2021/04/09 16:52:53;;;;;;;8.70;5.15;;;;;;;10.12;38.06;100316.34;1751161;80;25663;-65
2021/04/09 16:55:21;;;;;;;12.53;5.92;;;;;;;10.11;38.41;100315.53;1741882;81;26925;-65
2021/04/09 16:57:49;;;;;;;10.20;5.50;;;;;;;10.10;38.24;100310.69;1714080;81;25596;-63
2021/04/09 17:00:18;;;;;;;9.13;4.87;;;;;;;10.08;38.21;100313.46;1760880;80;25410;-64
2021/04/09 17:02:45;;;;;;;10.70;5.63;;;;;;;10.03;38.47;100306.82;1744253;80;25445;-63
2021/04/09 17:05:14;;;;;;;11.78;5.70;;;;;;;9.98;38.40;100309.08;1765667;80;25282;-63
2021/04/09 17:07:42;;;;;;;8.93;5.30;;;;;;;9.95;38.64;100312.94;1744229;80;25609;-64
2021/04/09 17:10:13;;;;;;;9.25;5.67;;;;;;;9.90;38.77;100304.39;1744237;81;25297;-62
2021/04/09 17:12:42;;;;;;;8.93;5.37;;;;;;;9.87;38.88;100307.69;1737553;80;25681;-61
2021/04/09 17:15:13;;;;;;;8.45;5.28;;;;;;;9.84;38.93;100309.64;1755017;80;25541;-63
2021/04/09 17:17:41;;;;;;;8.60;5.67;;;;;;;9.80;38.98;100310.01;1752008;80;26225;-63
2021/04/09 17:20:14;;;;;;;9.78;5.58;;;;;;;9.76;39.03;100312.52;1733266;81;26432;-63
2021/04/09 17:22:42;;;;;;;11.22;6.03;;;;;;;9.73;39.12;100314.47;1715539;80;25656;-63
2021/04/09 17:25:11;;;;;;;12.23;5.60;;;;;;;9.70;39.18;100319.94;1712203;82;25678;-62
2021/04/09 17:27:38;;;;;;;9.88;5.40;;;;;;;9.68;39.34;100319.98;1713570;82;25297;-62
2021/04/09 17:30:09;;;;;;;10.10;5.08;;;;;;;9.65;39.43;100320.58;1750683;80;25429;-62